createdAt,value
2023-06-04T00:00:46.840Z,44.75
2023-06-04T00:01:46.868Z,44.74
2023-06-04T00:02:46.932Z,44.69
2023-06-04T00:03:47.082Z,44.68
2023-06-04T00:04:46.973Z,44.62
2023-06-04T00:05:46.955Z,44.57
2023-06-04T00:06:46.959Z,44.58
2023-06-04T00:07:46.976Z,44.59
2023-06-04T00:08:47.004Z,44.56
2023-06-04T00:09:47.030Z,44.57
2023-06-04T00:10:47.038Z,44.55
2023-06-04T00:11:47.119Z,44.55
2023-06-04T00:12:47.080Z,44.57
2023-06-04T00:13:47.089Z,44.60
2023-06-04T00:14:47.121Z,44.59
2023-06-04T00:15:47.159Z,44.62
2023-06-04T00:16:47.317Z,44.56
2023-06-04T00:17:47.240Z,44.54
2023-06-04T00:18:47.159Z,44.53
2023-06-04T00:19:47.164Z,44.51
2023-06-04T00:20:47.182Z,44.49
2023-06-04T00:21:47.186Z,44.43
2023-06-04T00:22:47.205Z,44.41
2023-06-04T00:23:47.276Z,44.47
2023-06-04T00:24:47.224Z,44.47
2023-06-04T00:25:47.233Z,44.52
2023-06-04T00:26:47.255Z,44.52
2023-06-04T00:27:47.264Z,44.54
2023-06-04T00:28:47.312Z,44.50
2023-06-04T00:29:47.312Z,44.48
2023-06-04T00:30:47.309Z,44.45
2023-06-04T00:31:47.379Z,44.42
2023-06-04T00:32:47.412Z,44.39
2023-06-04T00:33:47.338Z,44.37
2023-06-04T00:34:47.352Z,44.33
2023-06-04T00:35:47.373Z,44.32
2023-06-04T00:36:47.381Z,44.30
2023-06-04T00:37:47.410Z,44.30
2023-06-04T00:38:47.408Z,44.28
2023-06-04T00:39:47.420Z,44.27
2023-06-04T00:40:47.423Z,44.23
2023-06-04T00:41:47.447Z,44.24
2023-06-04T00:42:47.479Z,44.22
2023-06-04T00:43:47.485Z,44.19
2023-06-04T00:44:47.495Z,44.19
2023-06-04T00:45:47.557Z,44.19
2023-06-04T00:46:47.505Z,44.15
2023-06-04T00:47:47.587Z,44.15
2023-06-04T00:48:47.535Z,44.15
2023-06-04T00:49:47.531Z,44.10
2023-06-04T00:50:47.542Z,44.15
2023-06-04T00:51:47.543Z,44.11
2023-06-04T00:52:47.544Z,44.08
2023-06-04T00:53:47.587Z,44.12
2023-06-04T00:54:47.580Z,44.07
2023-06-04T00:55:47.620Z,44.06
2023-06-04T00:56:47.618Z,44.07
2023-06-04T00:57:47.629Z,44.05
2023-06-04T00:58:47.724Z,44.13
2023-06-04T00:59:47.647Z,44.18
2023-06-04T01:00:47.662Z,44.23
2023-06-04T01:01:47.703Z,44.27
2023-06-04T01:02:47.726Z,44.23
2023-06-04T01:03:47.745Z,44.19
2023-06-04T01:04:47.675Z,44.18
2023-06-04T01:05:47.673Z,44.10
2023-06-04T01:06:47.672Z,44.03
2023-06-04T01:07:47.699Z,44.05
2023-06-04T01:08:47.679Z,44.01
2023-06-04T01:09:47.695Z,43.98
2023-06-04T01:10:47.686Z,43.96
2023-06-04T01:11:47.678Z,43.98
2023-06-04T01:12:47.689Z,43.96
2023-06-04T01:13:48.481Z,43.94
2023-06-04T01:14:47.702Z,43.95
2023-06-04T01:15:47.702Z,43.94
2023-06-04T01:16:47.829Z,43.91
2023-06-04T01:17:47.725Z,43.92
2023-06-04T01:18:47.709Z,43.97
2023-06-04T01:19:47.707Z,44.00
2023-06-04T01:20:47.733Z,44.01
2023-06-04T01:21:47.715Z,44.01
2023-06-04T01:22:47.716Z,44.02
2023-06-04T01:23:47.823Z,44.00
2023-06-04T01:24:47.730Z,44.00
2023-06-04T01:25:47.737Z,44.01
2023-06-04T01:26:47.745Z,43.99
2023-06-04T01:27:47.760Z,43.98
2023-06-04T01:28:47.762Z,43.99
2023-06-04T01:29:47.768Z,44.00
2023-06-04T01:30:47.811Z,44.02
2023-06-04T01:31:47.896Z,44.00
2023-06-04T01:32:47.867Z,43.98
2023-06-04T01:33:47.800Z,44.00
2023-06-04T01:34:47.810Z,43.98
2023-06-04T01:35:47.815Z,43.98
2023-06-04T01:36:47.838Z,43.93
2023-06-04T01:37:47.828Z,43.87
2023-06-04T01:38:47.830Z,43.85
2023-06-04T01:39:47.831Z,43.84
2023-06-04T01:40:47.830Z,43.81
2023-06-04T01:41:47.835Z,43.78
2023-06-04T01:42:47.841Z,43.79
2023-06-04T01:43:47.859Z,43.76
2023-06-04T01:44:47.850Z,43.78
2023-06-04T01:45:47.860Z,43.78
2023-06-04T01:46:47.929Z,43.74
2023-06-04T01:47:47.924Z,43.74
2023-06-04T01:48:47.897Z,43.71
2023-06-04T01:49:47.922Z,43.71
2023-06-04T01:50:47.925Z,43.70
2023-06-04T01:51:47.995Z,43.71
2023-06-04T01:52:47.939Z,43.68
2023-06-04T01:53:47.974Z,43.66
2023-06-04T01:54:47.970Z,43.63
2023-06-04T01:55:47.990Z,43.59
2023-06-04T01:56:48.021Z,43.57
2023-06-04T01:57:48.031Z,43.58
2023-06-04T01:58:48.029Z,43.57
2023-06-04T01:59:48.069Z,43.53
2023-06-04T02:00:48.067Z,43.55
2023-06-04T02:01:48.118Z,43.51
2023-06-04T02:02:48.141Z,43.51
2023-06-04T02:03:48.150Z,43.50
2023-06-04T02:04:48.106Z,43.52
2023-06-04T02:05:48.122Z,43.49
2023-06-04T02:06:48.151Z,43.49
2023-06-04T02:07:48.145Z,43.44
2023-06-04T02:08:48.168Z,43.44
2023-06-04T02:09:48.169Z,43.43
2023-06-04T02:10:48.234Z,43.37
2023-06-04T02:11:48.204Z,43.39
2023-06-04T02:12:48.241Z,43.39
2023-06-04T02:13:48.239Z,43.36
2023-06-04T02:14:48.256Z,43.36
2023-06-04T02:15:48.264Z,43.27
2023-06-04T02:16:48.327Z,43.23
2023-06-04T02:17:48.371Z,43.18
2023-06-04T02:18:48.317Z,43.15
2023-06-04T02:19:48.350Z,43.08
2023-06-04T02:20:48.341Z,43.04
2023-06-04T02:21:48.358Z,43.04
2023-06-04T02:22:48.371Z,43.05
2023-06-04T02:23:48.522Z,43.10
2023-06-04T02:24:48.400Z,43.08
2023-06-04T02:25:48.423Z,43.03
2023-06-04T02:26:48.434Z,42.95
2023-06-04T02:27:48.468Z,42.90
2023-06-04T02:28:48.517Z,42.89
2023-06-04T02:29:48.513Z,42.84
2023-06-04T02:30:48.566Z,42.82
2023-06-04T02:31:48.559Z,42.80
2023-06-04T02:32:51.942Z,42.82
2023-06-04T02:33:48.545Z,42.86
2023-06-04T02:34:48.569Z,42.87
2023-06-04T02:35:48.544Z,42.75
2023-06-04T02:36:48.527Z,42.73
2023-06-04T02:37:48.537Z,42.67
2023-06-04T02:38:48.544Z,42.64
2023-06-04T02:39:48.535Z,42.65
2023-06-04T02:40:48.532Z,42.64
2023-06-04T02:41:48.479Z,42.65
2023-06-04T02:42:48.476Z,42.67
2023-06-04T02:43:48.468Z,42.64
2023-06-04T02:44:48.477Z,42.58
2023-06-04T02:45:48.518Z,42.57
2023-06-04T02:46:48.461Z,42.57
2023-06-04T02:47:48.486Z,42.58
2023-06-04T02:48:48.433Z,42.57
2023-06-04T02:49:48.441Z,42.57
2023-06-04T02:50:48.420Z,42.62
2023-06-04T02:51:48.416Z,42.61
2023-06-04T02:52:48.421Z,42.61
2023-06-04T02:53:48.403Z,42.61
2023-06-04T02:54:48.396Z,42.62
2023-06-04T02:55:48.397Z,42.61
2023-06-04T02:56:48.389Z,42.58
2023-06-04T02:57:48.398Z,42.58
2023-06-04T02:58:48.380Z,42.55
2023-06-04T02:59:48.376Z,42.55
2023-06-04T03:00:48.357Z,42.54
2023-06-04T03:01:48.404Z,42.54
2023-06-04T03:02:48.441Z,42.51
2023-06-04T03:03:48.378Z,42.49
2023-06-04T03:04:48.338Z,42.43
2023-06-04T03:05:48.331Z,42.38
2023-06-04T03:06:48.326Z,42.32
2023-06-04T03:07:48.493Z,42.30
2023-06-04T03:08:48.366Z,42.28
2023-06-04T03:09:48.320Z,42.28
2023-06-04T03:10:48.299Z,42.26
2023-06-04T03:11:48.301Z,42.27
2023-06-04T03:12:48.283Z,42.36
2023-06-04T03:13:48.274Z,42.35
2023-06-04T03:14:48.272Z,42.34
2023-06-04T03:15:48.277Z,42.33
2023-06-04T03:16:48.257Z,42.34
2023-06-04T03:17:48.273Z,42.33
2023-06-04T03:18:48.251Z,42.29
2023-06-04T03:19:48.251Z,42.29
2023-06-04T03:20:48.261Z,42.28
2023-06-04T03:21:48.222Z,42.28
2023-06-04T03:22:48.222Z,42.23
2023-06-04T03:23:48.224Z,42.23
2023-06-04T03:24:48.213Z,42.21
2023-06-04T03:25:48.199Z,42.22
2023-06-04T03:26:48.198Z,42.20
2023-06-04T03:27:48.188Z,42.17
2023-06-04T03:28:48.198Z,42.17
2023-06-04T03:29:48.201Z,42.18
2023-06-04T03:30:48.196Z,42.11
2023-06-04T03:31:48.258Z,42.13
2023-06-04T03:32:48.218Z,42.14
2023-06-04T03:33:48.158Z,42.11
2023-06-04T03:34:48.169Z,42.07
2023-06-04T03:35:48.142Z,42.05
2023-06-04T03:36:48.142Z,42.03
2023-06-04T03:37:48.147Z,42.02
2023-06-04T03:38:48.165Z,42.03
2023-06-04T03:39:48.182Z,41.99
2023-06-04T03:40:48.180Z,41.97
2023-06-04T03:41:48.189Z,41.95
2023-06-04T03:42:48.211Z,41.94
2023-06-04T03:43:48.221Z,41.91
2023-06-04T03:44:48.230Z,41.88
2023-06-04T03:45:48.250Z,41.92
2023-06-04T03:46:48.294Z,41.87
2023-06-04T03:47:48.331Z,41.89
2023-06-04T03:48:48.293Z,41.87
2023-06-04T03:49:48.329Z,41.87
2023-06-04T03:50:48.326Z,41.88
2023-06-04T03:51:48.331Z,41.81
2023-06-04T03:52:48.347Z,41.81
2023-06-04T03:53:48.365Z,41.74
2023-06-04T03:54:48.377Z,41.74
2023-06-04T03:55:48.393Z,41.73
2023-06-04T03:56:48.403Z,41.73
2023-06-04T03:57:48.407Z,41.73
2023-06-04T03:58:48.433Z,41.68
2023-06-04T03:59:48.455Z,41.70
2023-06-04T04:00:48.465Z,41.67
2023-06-04T04:01:48.496Z,41.65
2023-06-04T04:02:48.540Z,41.63
2023-06-04T04:03:48.641Z,41.61
2023-06-04T04:04:48.530Z,41.64
2023-06-04T04:05:48.537Z,41.62
2023-06-04T04:06:48.559Z,41.56
2023-06-04T04:07:48.577Z,41.55
2023-06-04T04:08:48.592Z,41.57
2023-06-04T04:09:48.608Z,41.52
2023-06-04T04:10:48.616Z,41.54
2023-06-04T04:11:48.634Z,41.50
2023-06-04T04:12:48.705Z,41.51
2023-06-04T04:13:48.732Z,41.52
2023-06-04T04:14:48.697Z,41.47
2023-06-04T04:15:48.733Z,41.49
2023-06-04T04:16:48.851Z,41.49
2023-06-04T04:17:48.746Z,41.47
2023-06-04T04:18:48.733Z,41.47
2023-06-04T04:19:48.758Z,41.43
2023-06-04T04:20:48.768Z,41.42
2023-06-04T04:21:48.787Z,41.39
2023-06-04T04:22:51.351Z,41.39
2023-06-04T04:23:48.798Z,41.37
2023-06-04T04:24:48.790Z,41.33
2023-06-04T04:25:48.847Z,41.33
2023-06-04T04:26:48.783Z,41.33
2023-06-04T04:27:48.801Z,41.28
2023-06-04T04:28:48.766Z,41.27
2023-06-04T04:29:48.760Z,41.26
2023-06-04T04:30:48.777Z,41.24
2023-06-04T04:31:48.740Z,41.22
2023-06-04T04:32:48.788Z,41.21
2023-06-04T04:33:48.737Z,41.19
2023-06-04T04:34:48.734Z,41.16
2023-06-04T04:35:48.706Z,41.15
2023-06-04T04:36:48.728Z,41.17
2023-06-04T04:37:48.726Z,41.15
2023-06-04T04:38:48.733Z,41.11
2023-06-04T04:39:48.728Z,41.11
2023-06-04T04:40:48.685Z,41.10
2023-06-04T04:41:48.677Z,41.08
2023-06-04T04:42:48.668Z,41.07
2023-06-04T04:43:48.656Z,41.07
2023-06-04T04:44:48.656Z,41.05
2023-06-04T04:45:48.658Z,41.04
2023-06-04T04:46:48.692Z,41.01
2023-06-04T04:47:48.669Z,40.98
2023-06-04T04:48:48.629Z,40.98
2023-06-04T04:49:50.579Z,40.98
2023-06-04T04:50:48.622Z,40.97
2023-06-04T04:51:48.607Z,40.98
2023-06-04T04:52:48.624Z,40.96
2023-06-04T04:53:48.636Z,40.94
2023-06-04T04:54:48.679Z,40.92
2023-06-04T04:55:48.684Z,40.94
2023-06-04T04:56:51.540Z,40.89
2023-06-04T04:57:49.689Z,40.92
2023-06-04T04:58:48.693Z,40.88
2023-06-04T04:59:48.681Z,40.88
2023-06-04T05:00:48.685Z,40.89
2023-06-04T05:01:48.734Z,40.88
2023-06-04T05:02:48.678Z,40.87
2023-06-04T05:03:48.702Z,40.88
2023-06-04T05:04:48.641Z,40.88
2023-06-04T05:05:48.628Z,40.87
2023-06-04T05:06:48.627Z,40.86
2023-06-04T05:07:48.625Z,40.87
2023-06-04T05:08:48.613Z,40.87
2023-06-04T05:09:48.595Z,40.87
2023-06-04T05:10:48.589Z,40.87
2023-06-04T05:11:48.580Z,40.89
2023-06-04T05:12:48.588Z,40.89
2023-06-04T05:13:48.567Z,40.91
2023-06-04T05:14:48.576Z,40.89
2023-06-04T05:15:48.564Z,40.87
2023-06-04T05:16:48.611Z,40.93
2023-06-04T05:17:48.565Z,40.92
2023-06-04T05:18:48.561Z,40.93
2023-06-04T05:19:48.540Z,40.92
2023-06-04T05:20:48.546Z,40.90
2023-06-04T05:21:48.576Z,40.92
2023-06-04T05:22:48.579Z,40.95
2023-06-04T05:23:48.682Z,40.93
2023-06-04T05:24:48.618Z,40.95
2023-06-04T05:25:48.645Z,40.96
2023-06-04T05:26:48.680Z,40.94
2023-06-04T05:27:48.697Z,40.98
2023-06-04T05:28:48.700Z,40.99
2023-06-04T05:29:48.738Z,40.99
2023-06-04T05:30:48.738Z,40.99
2023-06-04T05:31:48.809Z,40.98
2023-06-04T05:32:48.863Z,40.99
2023-06-04T05:33:48.793Z,41.03
2023-06-04T05:34:48.971Z,40.99
2023-06-04T05:35:48.865Z,41.04
2023-06-04T05:36:48.828Z,41.02
2023-06-04T05:37:48.854Z,41.05
2023-06-04T05:38:48.863Z,41.04
2023-06-04T05:39:48.884Z,41.06
2023-06-04T05:40:48.948Z,41.04
2023-06-04T05:41:48.911Z,41.04
2023-06-04T05:42:48.927Z,41.10
2023-06-04T05:43:48.956Z,41.11
2023-06-04T05:44:48.983Z,41.11
2023-06-04T05:45:49.010Z,41.12
2023-06-04T05:46:48.995Z,41.11
2023-06-04T05:47:49.066Z,41.13
2023-06-04T05:48:49.034Z,41.13
2023-06-04T05:49:49.042Z,41.14
2023-06-04T05:50:49.083Z,41.13
2023-06-04T05:51:49.060Z,41.15
2023-06-04T05:52:49.065Z,41.14
2023-06-04T05:53:49.109Z,41.16
2023-06-04T05:54:49.099Z,41.16
2023-06-04T05:55:49.117Z,41.17
2023-06-04T05:56:49.122Z,41.15
2023-06-04T05:57:49.138Z,41.15
2023-06-04T05:58:49.157Z,41.17
2023-06-04T05:59:49.180Z,41.14
2023-06-04T06:00:49.211Z,41.17
2023-06-04T06:01:49.214Z,41.19
2023-06-04T06:02:49.242Z,41.21
2023-06-04T06:03:49.286Z,41.17
2023-06-04T06:04:49.271Z,41.22
2023-06-04T06:05:49.272Z,41.20
2023-06-04T06:06:49.292Z,41.23
2023-06-04T06:07:49.381Z,41.22
2023-06-04T06:08:49.315Z,41.24
2023-06-04T06:09:49.351Z,41.22
2023-06-04T06:10:49.381Z,41.21
2023-06-04T06:11:49.381Z,41.22
2023-06-04T06:12:49.378Z,41.26
2023-06-04T06:13:49.405Z,41.26
2023-06-04T06:14:49.418Z,41.25
2023-06-04T06:15:49.623Z,41.26
2023-06-04T06:16:49.436Z,41.26
2023-06-04T06:17:49.506Z,41.22
2023-06-04T06:18:49.462Z,41.31
2023-06-04T06:19:49.481Z,41.31
2023-06-04T06:20:49.491Z,41.33
2023-06-04T06:21:49.498Z,41.34
2023-06-04T06:22:49.528Z,41.34
2023-06-04T06:23:49.609Z,41.32
2023-06-04T06:24:49.578Z,41.34
2023-06-04T06:25:49.569Z,41.33
2023-06-04T06:26:49.574Z,41.32
2023-06-04T06:27:49.596Z,41.32
2023-06-04T06:28:49.611Z,41.33
2023-06-04T06:29:49.624Z,41.36
2023-06-04T06:30:49.691Z,41.36
2023-06-04T06:31:49.769Z,41.38
2023-06-04T06:32:49.727Z,41.37
2023-06-04T06:33:49.684Z,41.35
2023-06-04T06:34:49.727Z,41.39
2023-06-04T06:35:49.723Z,41.39
2023-06-04T06:36:49.740Z,41.39
2023-06-04T06:37:49.773Z,41.39
2023-06-04T06:38:49.780Z,41.42
2023-06-04T06:39:49.798Z,41.42
2023-06-04T06:40:49.804Z,41.49
2023-06-04T06:41:49.807Z,41.48
2023-06-04T06:42:49.820Z,41.51
2023-06-04T06:43:49.854Z,41.49
2023-06-04T06:44:49.854Z,41.51
2023-06-04T06:45:49.866Z,41.46
2023-06-04T06:46:49.969Z,41.48
2023-06-04T06:47:50.108Z,41.48
2023-06-04T06:48:49.910Z,41.46
2023-06-04T06:49:49.927Z,41.48
2023-06-04T06:50:49.946Z,41.48
2023-06-04T06:51:49.962Z,41.49
2023-06-04T06:52:49.994Z,41.49
2023-06-04T06:53:50.006Z,41.48
2023-06-04T06:54:50.021Z,41.49
2023-06-04T06:55:50.033Z,41.50
2023-06-04T06:56:50.051Z,41.51
2023-06-04T06:57:50.049Z,41.56
2023-06-04T06:58:50.067Z,41.55
2023-06-04T06:59:50.104Z,41.52
2023-06-04T07:00:50.130Z,41.51
2023-06-04T07:01:50.136Z,41.51
2023-06-04T07:02:50.183Z,41.47
2023-06-04T07:03:50.129Z,41.51
2023-06-04T07:04:50.147Z,41.52
2023-06-04T07:05:50.145Z,41.55
2023-06-04T07:06:50.166Z,41.57
2023-06-04T07:07:50.168Z,41.56
2023-06-04T07:08:50.177Z,41.54
2023-06-04T07:09:50.197Z,41.53
2023-06-04T07:10:50.221Z,41.54
2023-06-04T07:11:50.221Z,41.53
2023-06-04T07:12:50.233Z,41.53
2023-06-04T07:13:50.239Z,41.53
2023-06-04T07:14:50.285Z,41.55
2023-06-04T07:15:50.270Z,41.51
2023-06-04T07:16:50.341Z,41.52
2023-06-04T07:17:50.343Z,41.51
2023-06-04T07:18:50.323Z,41.52
2023-06-04T07:19:50.348Z,41.55
2023-06-04T07:20:50.354Z,41.63
2023-06-04T07:21:50.373Z,41.69
2023-06-04T07:22:50.395Z,41.75
2023-06-04T07:23:50.454Z,41.78
2023-06-04T07:24:50.416Z,41.78
2023-06-04T07:25:50.437Z,41.75
2023-06-04T07:26:50.454Z,41.68
2023-06-04T07:27:50.445Z,41.62
2023-06-04T07:28:50.460Z,41.59
2023-06-04T07:29:50.528Z,41.59
2023-06-04T07:30:50.493Z,41.57
2023-06-04T07:31:50.560Z,41.58
2023-06-04T07:32:50.623Z,41.57
2023-06-04T07:33:50.645Z,41.57
2023-06-04T07:34:50.535Z,41.59
2023-06-04T07:35:50.549Z,41.57
2023-06-04T07:36:50.551Z,41.58
2023-06-04T07:37:50.564Z,41.57
2023-06-04T07:38:50.574Z,41.57
2023-06-04T07:39:50.610Z,41.58
2023-06-04T07:40:50.613Z,41.57
2023-06-04T07:41:50.631Z,41.58
2023-06-04T07:42:50.624Z,41.60
2023-06-04T07:43:50.634Z,41.55
2023-06-04T07:44:50.644Z,41.60
2023-06-04T07:45:50.700Z,41.56
2023-06-04T07:46:50.666Z,41.58
2023-06-04T07:47:50.721Z,41.56
2023-06-04T07:48:50.662Z,41.65
2023-06-04T07:50:01.760Z,41.65
2023-06-04T07:50:51.682Z,41.67
2023-06-04T07:51:50.659Z,41.65
2023-06-04T07:52:50.650Z,41.64
2023-06-04T07:53:50.644Z,41.64
2023-06-04T07:54:50.637Z,41.65
2023-06-04T07:55:51.790Z,41.64
2023-06-04T07:56:50.632Z,41.64
2023-06-04T07:57:50.614Z,41.67
2023-06-04T07:58:50.622Z,41.66
2023-06-04T07:59:50.605Z,41.68
2023-06-04T08:00:50.592Z,41.67
2023-06-04T08:01:50.591Z,41.67
2023-06-04T08:02:50.636Z,41.70
2023-06-04T08:03:50.727Z,41.72
2023-06-04T08:04:50.585Z,41.74
2023-06-04T08:05:50.559Z,41.71
2023-06-04T08:06:50.559Z,41.68
2023-06-04T08:07:50.606Z,41.66
2023-06-04T08:08:50.541Z,41.66
2023-06-04T08:09:50.530Z,41.65
2023-06-04T08:10:50.510Z,41.65
2023-06-04T08:11:50.515Z,41.63
2023-06-04T08:12:50.513Z,41.65
2023-06-04T08:13:50.510Z,41.65
2023-06-04T08:14:50.488Z,41.64
2023-06-04T08:15:50.523Z,41.66
2023-06-04T08:16:50.514Z,41.66
2023-06-04T08:17:50.568Z,41.67
2023-06-04T08:18:50.511Z,41.66
2023-06-04T08:19:50.510Z,41.67
2023-06-04T08:20:50.530Z,41.67
2023-06-04T08:21:50.511Z,41.66
2023-06-04T08:22:50.521Z,41.65
2023-06-04T08:23:50.533Z,41.66
2023-06-04T08:24:50.535Z,41.69
2023-06-04T08:25:50.537Z,41.67
2023-06-04T08:26:50.540Z,41.68
2023-06-04T08:27:50.557Z,41.66
2023-06-04T08:28:50.572Z,41.65
2023-06-04T08:29:50.604Z,41.66
2023-06-04T08:30:50.596Z,41.72
2023-06-04T08:31:50.625Z,41.74
2023-06-04T08:32:50.628Z,41.75
2023-06-04T08:33:50.607Z,41.76
2023-06-04T08:34:50.612Z,41.74
2023-06-04T08:35:50.614Z,41.76
2023-06-04T08:36:50.631Z,41.73
2023-06-04T08:37:50.640Z,41.73
2023-06-04T08:38:52.714Z,41.74
2023-06-04T08:39:50.630Z,41.73
2023-06-04T08:40:50.637Z,41.76
2023-06-04T08:41:50.659Z,41.78
2023-06-04T08:42:50.653Z,41.83
2023-06-04T08:43:50.645Z,41.81
2023-06-04T08:44:50.661Z,41.83
2023-06-04T08:45:50.698Z,41.79
2023-06-04T08:46:50.660Z,41.74
2023-06-04T08:47:50.733Z,41.75
2023-06-04T08:48:50.672Z,41.76
2023-06-04T08:49:50.679Z,41.73
2023-06-04T08:50:50.678Z,41.74
2023-06-04T08:51:50.686Z,41.70
2023-06-04T08:52:50.737Z,41.72
2023-06-04T08:53:50.691Z,41.74
2023-06-04T08:54:50.696Z,41.72
2023-06-04T08:55:50.685Z,41.77
2023-06-04T08:56:50.686Z,41.72
2023-06-04T08:57:50.706Z,41.74
2023-06-04T08:58:52.576Z,41.74
2023-06-04T08:59:50.697Z,41.73
2023-06-04T09:00:50.807Z,41.69
2023-06-04T09:01:50.801Z,41.70
2023-06-04T09:02:50.726Z,41.68
2023-06-04T09:03:50.800Z,41.66
2023-06-04T09:04:50.734Z,41.70
2023-06-04T09:05:50.731Z,41.71
2023-06-04T09:06:50.737Z,41.72
2023-06-04T09:07:50.737Z,41.71
2023-06-04T09:08:57.513Z,41.73
2023-06-04T09:10:04.171Z,41.73
2023-06-04T09:10:51.788Z,41.77
2023-06-04T09:11:50.717Z,41.78
2023-06-04T09:12:50.713Z,41.81
2023-06-04T09:13:50.715Z,41.78
2023-06-04T09:14:50.697Z,41.73
2023-06-04T09:15:50.819Z,41.70
2023-06-04T09:16:50.685Z,41.69
2023-06-04T09:17:50.763Z,41.67
2023-06-04T09:18:50.686Z,41.67
2023-06-04T09:19:50.682Z,41.65
2023-06-04T09:20:50.656Z,41.66
2023-06-04T09:21:50.650Z,41.69
2023-06-04T09:22:50.655Z,41.66
2023-06-04T09:23:50.658Z,41.61
2023-06-04T09:24:50.660Z,41.56
2023-06-04T09:25:50.641Z,41.54
2023-06-04T09:26:50.610Z,41.49
2023-06-04T09:27:50.601Z,41.49
2023-06-04T09:28:50.596Z,41.57
2023-06-04T09:29:51.368Z,41.60
2023-06-04T09:30:50.652Z,41.59
2023-06-04T09:31:50.687Z,41.62
2023-06-04T09:32:50.627Z,41.64
2023-06-04T09:33:50.580Z,41.62
2023-06-04T09:34:50.555Z,41.60
2023-06-04T09:35:50.547Z,41.59
2023-06-04T09:36:50.551Z,41.61
2023-06-04T09:37:50.591Z,41.54
2023-06-04T09:38:50.532Z,41.60
2023-06-04T09:39:50.534Z,41.58
2023-06-04T09:40:50.526Z,41.59
2023-06-04T09:41:50.522Z,41.58
2023-06-04T09:42:50.517Z,41.57
2023-06-04T09:43:50.501Z,41.58
2023-06-04T09:44:50.531Z,41.56
2023-06-04T09:45:50.478Z,41.56
2023-06-04T09:46:50.547Z,41.56
2023-06-04T09:47:50.526Z,41.53
2023-06-04T09:48:50.456Z,41.55
2023-06-04T09:49:50.462Z,41.52
2023-06-04T09:50:50.445Z,41.53
2023-06-04T09:51:50.446Z,41.52
2023-06-04T09:52:50.437Z,41.56
2023-06-04T09:53:50.444Z,41.57
2023-06-04T09:54:50.460Z,41.59
2023-06-04T09:55:50.425Z,41.58
2023-06-04T09:56:50.415Z,41.59
2023-06-04T09:57:50.420Z,41.57
2023-06-04T09:58:50.401Z,41.63
2023-06-04T09:59:50.407Z,41.61
2023-06-04T10:00:50.410Z,41.63
2023-06-04T10:01:50.494Z,41.64
2023-06-04T10:02:50.487Z,41.64
2023-06-04T10:03:50.492Z,41.65
2023-06-04T10:04:50.373Z,41.64
2023-06-04T10:05:50.363Z,41.63
2023-06-04T10:06:50.354Z,41.63
2023-06-04T10:07:50.345Z,41.62
2023-06-04T10:08:50.351Z,41.60
2023-06-04T10:09:50.341Z,41.62
2023-06-04T10:10:50.330Z,41.63
2023-06-04T10:11:50.331Z,41.62
2023-06-04T10:12:50.321Z,41.62
2023-06-04T10:13:50.309Z,41.62
2023-06-04T10:14:50.315Z,41.63
2023-06-04T10:15:50.306Z,41.64
2023-06-04T10:16:50.330Z,41.60
2023-06-04T10:17:50.319Z,41.60
2023-06-04T10:18:50.288Z,41.61
2023-06-04T10:19:50.290Z,41.60
2023-06-04T10:20:50.285Z,41.61
2023-06-04T10:21:50.262Z,41.61
2023-06-04T10:22:50.257Z,41.60
2023-06-04T10:23:50.300Z,41.57
2023-06-04T10:24:50.245Z,41.59
2023-06-04T10:25:50.232Z,41.57
2023-06-04T10:26:50.238Z,41.58
2023-06-04T10:27:50.219Z,41.58
2023-06-04T10:28:50.209Z,41.59
2023-06-04T10:29:50.202Z,41.59
2023-06-04T10:30:50.204Z,41.57
2023-06-04T10:31:50.269Z,41.58
2023-06-04T10:32:50.387Z,41.57
2023-06-04T10:33:50.184Z,41.59
2023-06-04T10:34:50.192Z,41.59
2023-06-04T10:35:50.170Z,41.60
2023-06-04T10:36:50.178Z,41.57
2023-06-04T10:37:50.153Z,41.58
2023-06-04T10:38:50.166Z,41.61
2023-06-04T10:39:50.158Z,41.57
2023-06-04T10:40:50.149Z,41.57
2023-06-04T10:41:50.143Z,41.60
2023-06-04T10:42:50.129Z,41.56
2023-06-04T10:43:50.123Z,41.56
2023-06-04T10:44:50.145Z,41.53
2023-06-04T10:45:50.166Z,41.51
2023-06-04T10:46:50.101Z,41.54
2023-06-04T10:47:50.138Z,41.53
2023-06-04T10:48:50.098Z,41.54
2023-06-04T10:49:50.111Z,41.53
2023-06-04T10:50:50.090Z,41.51
2023-06-04T10:51:50.079Z,41.56
2023-06-04T10:52:50.072Z,41.53
2023-06-04T10:53:50.059Z,41.55
2023-06-04T10:54:50.114Z,41.53
2023-06-04T10:55:50.053Z,41.47
2023-06-04T10:56:50.049Z,41.46
2023-06-04T10:57:50.042Z,41.45
2023-06-04T10:58:50.036Z,41.41
2023-06-04T10:59:50.039Z,41.38
2023-06-04T11:00:50.170Z,41.33
2023-06-04T11:01:50.051Z,41.32
2023-06-04T11:02:50.078Z,41.31
2023-06-04T11:03:50.072Z,41.34
2023-06-04T11:04:49.981Z,41.37
2023-06-04T11:05:49.973Z,41.41
2023-06-04T11:06:49.967Z,41.40
2023-06-04T11:07:49.982Z,41.40
2023-06-04T11:08:49.991Z,41.44
2023-06-04T11:09:50.005Z,41.45
2023-06-04T11:10:50.000Z,41.48
2023-06-04T11:11:50.019Z,41.46
2023-06-04T11:12:50.038Z,41.49
2023-06-04T11:13:50.067Z,41.49
2023-06-04T11:14:50.087Z,41.47
2023-06-04T11:15:50.131Z,41.50
2023-06-04T11:16:50.100Z,41.49
2023-06-04T11:17:50.125Z,41.48
2023-06-04T11:18:50.106Z,41.46
2023-06-04T11:19:50.108Z,41.45
2023-06-04T11:20:50.106Z,41.48
2023-06-04T11:21:50.106Z,41.46
2023-06-04T11:22:50.109Z,41.45
2023-06-04T11:23:50.211Z,41.45
2023-06-04T11:24:50.132Z,41.47
2023-06-04T11:25:50.143Z,41.46
2023-06-04T11:27:00.215Z,41.47
2023-06-04T11:27:51.149Z,41.43
2023-06-04T11:28:50.156Z,41.44
2023-06-04T11:29:50.160Z,41.43
2023-06-04T11:30:50.128Z,41.42
2023-06-04T11:31:50.295Z,41.43
2023-06-04T11:32:50.205Z,41.42
2023-06-04T11:33:50.098Z,41.45
2023-06-04T11:34:50.116Z,41.43
2023-06-04T11:35:50.081Z,41.43
2023-06-04T11:36:50.084Z,41.39
2023-06-04T11:37:50.079Z,41.41
2023-06-04T11:38:50.083Z,41.38
2023-06-04T11:39:50.081Z,41.39
2023-06-04T11:40:50.047Z,41.39
2023-06-04T11:41:50.044Z,41.39
2023-06-04T11:42:50.036Z,41.41
2023-06-04T11:43:50.024Z,41.41
2023-06-04T11:44:50.110Z,41.41
2023-06-04T11:45:50.026Z,41.40
2023-06-04T11:46:50.026Z,41.38
2023-06-04T11:47:50.109Z,41.38
2023-06-04T11:48:50.052Z,41.38
2023-06-04T11:49:50.043Z,41.38
2023-06-04T11:50:50.092Z,41.40
2023-06-04T11:51:50.160Z,41.37
2023-06-04T11:52:50.204Z,41.37
2023-06-04T11:53:50.268Z,41.40
2023-06-04T11:54:50.351Z,41.38
2023-06-04T11:55:50.382Z,41.36
2023-06-04T11:56:50.432Z,41.39
2023-06-04T11:57:50.482Z,41.38
2023-06-04T11:58:50.559Z,41.38
2023-06-04T11:59:50.640Z,41.38
2023-06-04T12:00:50.653Z,41.41
2023-06-04T12:01:50.743Z,41.37
2023-06-04T12:02:50.855Z,41.36
2023-06-04T12:03:50.748Z,41.38
2023-06-04T12:04:50.778Z,41.39
2023-06-04T12:05:50.794Z,41.38
2023-06-04T12:06:50.824Z,41.35
2023-06-04T12:07:50.872Z,41.38
2023-06-04T12:08:50.909Z,41.36
2023-06-04T12:09:50.938Z,41.36
2023-06-04T12:10:50.979Z,41.37
2023-06-04T12:11:51.010Z,41.34
2023-06-04T12:12:51.035Z,41.35
2023-06-04T12:13:51.056Z,41.35
2023-06-04T12:14:51.111Z,41.31
2023-06-04T12:15:51.121Z,41.35
2023-06-04T12:16:51.240Z,41.30
2023-06-04T12:17:51.244Z,41.34
2023-06-04T12:18:51.233Z,41.30
2023-06-04T12:19:51.284Z,41.31
2023-06-04T12:20:51.317Z,41.32
2023-06-04T12:21:51.337Z,41.30
2023-06-04T12:22:51.362Z,41.27
2023-06-04T12:23:51.373Z,41.27
2023-06-04T12:24:51.362Z,41.26
2023-06-04T12:25:51.370Z,41.25
2023-06-04T12:26:51.376Z,41.29
2023-06-04T12:27:51.369Z,41.29
2023-06-04T12:28:51.390Z,41.27
2023-06-04T12:29:51.382Z,41.28
2023-06-04T12:30:51.389Z,41.27
2023-06-04T12:31:51.396Z,41.27
2023-06-04T12:32:51.441Z,41.28
2023-06-04T12:33:51.408Z,41.26
2023-06-04T12:34:51.443Z,41.26
2023-06-04T12:35:51.437Z,41.24
2023-06-04T12:36:51.464Z,41.24
2023-06-04T12:37:51.496Z,41.28
2023-06-04T12:38:51.511Z,41.27
2023-06-04T12:39:51.522Z,41.26
2023-06-04T12:40:51.520Z,41.24
2023-06-04T12:41:51.553Z,41.25
2023-06-04T12:42:51.525Z,41.24
2023-06-04T12:43:51.522Z,41.24
2023-06-04T12:44:51.522Z,41.22
2023-06-04T12:45:51.566Z,41.21
2023-06-04T12:46:52.161Z,41.22
2023-06-04T12:47:51.677Z,41.21
2023-06-04T12:48:51.669Z,41.20
2023-06-04T12:49:51.716Z,41.24
2023-06-04T12:50:51.765Z,41.21
2023-06-04T12:51:51.819Z,41.22
2023-06-04T12:52:51.864Z,41.22